Terminal Aerodrome Forecast
Issued by NWS Atlanta, GA

Home | Current Version | Previous Version | Text Only | Print | Product List | Glossary On
Versions: 1 2 3 4 5 6 7 8 9 10 11 12 13 14 15 16 17 18 19 20 21 22 23 24 25 26 27 28 29 30
134
FTAK31 PAJN 131538 AAA
TAFAHN
TAF AMD
PAHN 131538Z 1316/1412 11005KT 6SM -RA BKN008 OVC015
      TEMPO 1316/1318 3SM RA BR OVC003
     FM131800 07010KT 4SM -RA BR OVC015 WS020/16035KT
     FM132100 10012G22KT 3SM RA BR BKN007 OVC015
     FM140300 09015G25KT 4SM -RA BR BKN015 OVC025 WS020/16040KT
     FM141000 09009G18KT 5SM -RA BR SCT015 OVC025
      AMD LTD TO CLD VIS AND WIND=

USA.gov is the U.S. government's official web portal to all federal, state and local government web resources and services.